createdAt,value
2019-05-06T00:04:18.833Z,981.12
2019-05-06T00:09:19.174Z,981.14
2019-05-06T00:14:25.601Z,981.09
2019-05-06T00:19:25.977Z,981.21
2019-05-06T00:24:25.777Z,981.12
2019-05-06T00:29:25.777Z,981.1
2019-05-06T00:34:25.800Z,981.07
2019-05-06T00:39:26.188Z,981.22
2019-05-06T00:44:26.060Z,981.16
2019-05-06T00:49:26.094Z,981.24
2019-05-06T00:54:26.276Z,981.24
2019-05-06T00:59:27.221Z,981.25
2019-05-06T01:04:27.232Z,981.31
2019-05-06T01:09:35.019Z,981.33
2019-05-06T01:14:35.622Z,981.35
2019-05-06T01:19:34.844Z,981.33
2019-05-06T01:24:35.170Z,981.32
2019-05-06T01:29:35.362Z,981.3
2019-05-06T01:34:34.653Z,981.35
2019-05-06T01:39:34.693Z,981.35
2019-05-06T01:44:34.580Z,981.35
2019-05-06T01:49:34.695Z,981.44
2019-05-06T01:54:35.065Z,981.42
2019-05-06T01:59:34.723Z,981.45
2019-05-06T02:04:44.912Z,981.43
2019-05-06T02:09:44.952Z,981.44
2019-05-06T02:14:44.244Z,981.45
2019-05-06T02:19:44.433Z,981.46
2019-05-06T02:24:44.545Z,981.47
2019-05-06T02:29:43.993Z,981.51
2019-05-06T02:34:46.570Z,981.52
2019-05-06T02:39:44.521Z,981.53
2019-05-06T02:44:44.805Z,981.55
2019-05-06T02:49:44.921Z,981.57
2019-05-06T02:54:43.387Z,981.54
2019-05-06T02:59:56.069Z,981.66
2019-05-06T03:04:53.460Z,981.68
2019-05-06T03:09:53.874Z,981.62
2019-05-06T03:14:53.900Z,981.68
2019-05-06T03:19:53.322Z,981.67
2019-05-06T03:24:55.231Z,981.72
2019-05-06T03:29:54.381Z,981.72
2019-05-06T03:35:43.913Z,981.73
2019-05-06T03:39:53.592Z,981.72
2019-05-06T03:44:54.078Z,981.75
2019-05-06T03:49:55.333Z,981.78
2019-05-06T03:54:59.580Z,981.8
2019-05-06T03:59:59.604Z,981.87
2019-05-06T04:04:59.724Z,981.89
2019-05-06T04:10:03.192Z,981.9
2019-05-06T04:14:59.845Z,981.93
2019-05-06T04:19:59.960Z,981.94
2019-05-06T04:25:06.097Z,981.99
2019-05-06T04:30:00.133Z,982.01
2019-05-06T04:35:00.137Z,982.04
2019-05-06T04:40:04.179Z,982.08
2019-05-06T04:45:00.594Z,982.11
2019-05-06T04:50:09.086Z,982.12
2019-05-06T04:55:09.114Z,982.22
2019-05-06T05:00:09.082Z,982.24
2019-05-06T05:05:09.266Z,982.25
2019-05-06T05:10:09.181Z,982.24
2019-05-06T05:15:09.219Z,982.31
2019-05-06T05:20:09.424Z,982.35
2019-05-06T05:25:09.373Z,982.37
2019-05-06T05:30:09.489Z,982.44
2019-05-06T05:35:09.429Z,982.39
2019-05-06T05:40:09.544Z,982.46
2019-05-06T05:45:15.998Z,982.51
2019-05-06T05:50:16.024Z,982.54
2019-05-06T05:55:16.061Z,982.62
2019-05-06T06:00:16.094Z,982.73
2019-05-06T06:05:16.208Z,982.78
2019-05-06T06:10:16.324Z,982.79
2019-05-06T06:15:16.260Z,982.75
2019-05-06T06:20:16.376Z,982.77
2019-05-06T06:25:16.661Z,982.9
2019-05-06T06:30:16.778Z,982.86
2019-05-06T06:35:19.674Z,982.81
2019-05-06T06:40:23.034Z,982.77
2019-05-06T06:45:23.645Z,982.81
2019-05-06T06:50:23.131Z,982.85
2019-05-06T06:55:23.233Z,982.85
2019-05-06T07:00:23.256Z,982.84
2019-05-06T07:05:29.030Z,982.84
2019-05-06T07:10:23.370Z,982.86
2019-05-06T07:15:23.634Z,982.9
2019-05-06T07:20:23.658Z,982.91
2019-05-06T07:25:23.685Z,982.92
2019-05-06T07:30:23.870Z,982.92
2019-05-06T07:35:43.964Z,983.0
2019-05-06T07:40:32.493Z,983.01
2019-05-06T07:45:32.708Z,983.02
2019-05-06T07:50:30.553Z,983.11
2019-05-06T07:55:33.013Z,983.0
2019-05-06T08:00:32.935Z,983.01
2019-05-06T08:05:32.902Z,983.02
2019-05-06T08:10:33.737Z,983.03
2019-05-06T08:15:33.249Z,983.03
2019-05-06T08:20:32.966Z,983.1
2019-05-06T08:25:33.407Z,983.07
2019-05-06T08:30:37.442Z,983.11
2019-05-06T08:35:37.293Z,983.13
2019-05-06T08:40:37.633Z,983.18
2019-05-06T08:45:37.408Z,983.23
2019-05-06T08:50:37.671Z,983.05
2019-05-06T08:55:37.951Z,982.98
2019-05-06T09:00:37.819Z,982.98
2019-05-06T09:05:37.858Z,983.03
2019-05-06T09:10:37.974Z,983.02
2019-05-06T09:15:38.007Z,983.03
2019-05-06T09:20:38.284Z,982.99
2019-05-06T09:25:44.652Z,982.98
2019-05-06T09:30:44.656Z,983.01
2019-05-06T09:35:45.044Z,983.01
2019-05-06T09:40:44.810Z,983.0
2019-05-06T09:45:44.850Z,982.97
2019-05-06T09:50:47.097Z,982.97
2019-05-06T09:55:45.122Z,982.91
2019-05-06T10:00:45.316Z,982.91
2019-05-06T10:05:45.308Z,982.84
2019-05-06T10:11:00.185Z,982.75
2019-05-06T10:15:45.435Z,982.72
2019-05-06T10:20:51.895Z,982.77
2019-05-06T10:25:52.885Z,982.66
2019-05-06T10:30:51.944Z,982.64
2019-05-06T10:35:53.615Z,982.56
2019-05-06T10:41:07.897Z,982.49
2019-05-06T10:45:52.666Z,982.41
2019-05-06T10:50:52.687Z,982.42
2019-05-06T10:55:54.245Z,982.44
2019-05-06T11:00:53.477Z,982.46
2019-05-06T11:05:54.102Z,982.49
2019-05-06T11:10:54.113Z,982.39
2019-05-06T11:15:59.697Z,982.45
2019-05-06T11:20:59.733Z,982.46
2019-05-06T11:25:59.849Z,982.43
2019-05-06T11:31:02.730Z,982.5
2019-05-06T11:36:00.066Z,982.53
2019-05-06T11:40:59.996Z,982.46
2019-05-06T11:46:00.200Z,982.48
2019-05-06T11:51:00.317Z,982.45
2019-05-06T11:56:02.614Z,982.42
2019-05-06T12:01:03.211Z,982.39
2019-05-06T12:06:00.514Z,982.38
2019-05-06T12:11:06.796Z,982.42
2019-05-06T12:16:06.838Z,982.4
2019-05-06T12:21:19.484Z,982.35
2019-05-06T12:26:07.038Z,982.33
2019-05-06T12:31:07.245Z,982.34
2019-05-06T12:36:07.126Z,982.26
2019-05-06T12:41:07.306Z,982.29
2019-05-06T12:46:07.418Z,982.18
2019-05-06T12:51:07.602Z,982.18
2019-05-06T12:56:07.558Z,982.22
2019-05-06T13:01:07.639Z,982.16
2019-05-06T13:06:14.212Z,982.27
2019-05-06T13:11:14.123Z,982.2
2019-05-06T13:16:14.302Z,982.21
2019-05-06T13:21:14.238Z,982.2
2019-05-06T13:26:14.349Z,982.16
2019-05-06T13:32:57.400Z,982.21
2019-05-06T13:36:14.526Z,982.09
2019-05-06T13:41:14.540Z,982.09
2019-05-06T13:46:14.585Z,982.14
2019-05-06T13:51:14.967Z,982.03
2019-05-06T13:56:14.918Z,982.09
2019-05-06T14:01:23.780Z,982.1
2019-05-06T14:06:22.228Z,982.1
2019-05-06T14:11:23.606Z,981.95
2019-05-06T14:16:25.288Z,981.91
2019-05-06T14:21:23.424Z,982.0
2019-05-06T14:26:23.440Z,982.0
2019-05-06T14:31:26.232Z,982.01
2019-05-06T14:36:27.012Z,982.02
2019-05-06T14:41:27.822Z,982.05
2019-05-06T14:46:23.491Z,982.13
2019-05-06T14:51:23.351Z,982.01
2019-05-06T14:56:31.825Z,982.04
2019-05-06T15:01:29.793Z,982.02
2019-05-06T15:06:29.710Z,981.99
2019-05-06T15:11:29.895Z,981.98
2019-05-06T15:16:30.007Z,981.91
2019-05-06T15:21:39.289Z,981.88
2019-05-06T15:26:34.131Z,981.98
2019-05-06T15:31:31.608Z,981.88
2019-05-06T15:36:33.281Z,981.93
2019-05-06T15:41:32.823Z,982.04
2019-05-06T15:46:32.859Z,982.04
2019-05-06T15:51:39.253Z,982.01
2019-05-06T15:56:39.445Z,982.07
2019-05-06T16:01:39.430Z,982.1
2019-05-06T16:06:41.794Z,982.08
2019-05-06T16:11:39.578Z,982.1
2019-05-06T16:16:39.690Z,982.11
2019-05-06T16:21:45.624Z,982.02
2019-05-06T16:26:39.902Z,982.03
2019-05-06T16:31:42.081Z,982.06
2019-05-06T16:36:40.047Z,982.05
2019-05-06T16:41:42.187Z,982.07
2019-05-06T16:46:48.528Z,982.13
2019-05-06T16:51:48.563Z,982.08
2019-05-06T16:56:48.603Z,982.17
2019-05-06T17:01:48.762Z,982.14
2019-05-06T17:06:49.093Z,982.13
2019-05-06T17:11:49.218Z,982.18
2019-05-06T17:16:49.894Z,982.15
2019-05-06T17:21:52.898Z,982.14
2019-05-06T17:26:56.862Z,982.17
2019-05-06T17:31:50.869Z,982.18
2019-05-06T17:36:50.930Z,982.16
2019-05-06T17:41:57.299Z,982.18
2019-05-06T17:46:57.317Z,982.18
2019-05-06T17:51:57.361Z,982.24
2019-05-06T17:56:57.489Z,982.28
2019-05-06T18:01:57.460Z,982.29
2019-05-06T18:06:57.583Z,982.32
2019-05-06T18:12:02.474Z,982.38
2019-05-06T18:16:57.668Z,982.46
2019-05-06T18:21:57.857Z,982.5
2019-05-06T18:26:57.893Z,982.52
2019-05-06T18:31:57.905Z,982.56
2019-05-06T18:37:04.184Z,982.59
2019-05-06T18:42:23.500Z,982.66
2019-05-06T18:47:04.449Z,982.69
2019-05-06T18:52:04.470Z,982.7
2019-05-06T18:57:05.579Z,982.76
2019-05-06T19:02:04.630Z,982.8
2019-05-06T19:07:17.365Z,982.9
2019-05-06T19:12:04.666Z,982.92
2019-05-06T19:17:04.707Z,982.97
2019-05-06T19:22:04.823Z,982.98
2019-05-06T19:27:04.858Z,983.05
2019-05-06T19:32:09.170Z,983.04
2019-05-06T19:37:09.282Z,983.08
2019-05-06T19:42:09.318Z,983.05
2019-05-06T19:47:09.343Z,983.09
2019-05-06T19:52:09.909Z,983.11
2019-05-06T19:57:09.517Z,983.05
2019-05-06T20:02:09.545Z,983.0
2019-05-06T20:07:09.810Z,982.99
2019-05-06T20:12:09.803Z,982.92
2019-05-06T20:17:09.842Z,982.9
2019-05-06T20:22:09.999Z,982.88
2019-05-06T20:27:16.239Z,982.92
2019-05-06T20:32:16.353Z,982.9
2019-05-06T20:37:16.568Z,982.87
2019-05-06T20:42:16.515Z,982.82
2019-05-06T20:47:16.503Z,982.79
2019-05-06T20:52:16.618Z,982.73
2019-05-06T20:57:16.730Z,982.8
2019-05-06T21:02:16.738Z,982.71
2019-05-06T21:07:16.773Z,982.74
2019-05-06T21:12:16.966Z,982.72
2019-05-06T21:17:16.974Z,982.78
2019-05-06T21:22:26.011Z,982.75
2019-05-06T21:27:23.595Z,982.69
2019-05-06T21:32:23.437Z,982.65
2019-05-06T21:37:23.637Z,982.62
2019-05-06T21:42:24.679Z,982.6
2019-05-06T21:47:23.732Z,982.56
2019-05-06T21:52:42.930Z,982.57
2019-05-06T21:57:23.939Z,982.55
2019-05-06T22:02:26.231Z,982.47
2019-05-06T22:07:26.346Z,982.41
2019-05-06T22:12:26.346Z,982.47
2019-05-06T22:17:32.651Z,982.47
2019-05-06T22:22:33.002Z,982.5
2019-05-06T22:27:30.869Z,982.49
2019-05-06T22:32:33.334Z,982.4
2019-05-06T22:37:32.654Z,982.38
2019-05-06T22:42:32.890Z,982.4
2019-05-06T22:47:33.116Z,982.39
2019-05-06T22:52:33.075Z,982.43
2019-05-06T22:57:33.584Z,982.46
2019-05-06T23:02:32.733Z,982.52
2019-05-06T23:07:31.378Z,982.58
2019-05-06T23:12:37.693Z,982.57
2019-05-06T23:17:37.713Z,982.53
2019-05-06T23:22:37.829Z,982.5
2019-05-06T23:27:37.864Z,982.53
2019-05-06T23:32:37.902Z,982.5
2019-05-06T23:37:38.017Z,982.48
2019-05-06T23:42:38.053Z,982.52
2019-05-06T23:47:38.057Z,982.52
2019-05-06T23:52:38.246Z,982.4
2019-05-06T23:57:38.281Z,982.34
